createdAt,value
2023-04-15T00:01:51.650Z,5.53
2023-04-15T00:04:18.501Z,7.45
2023-04-15T00:06:51.894Z,12.15
2023-04-15T00:09:19.511Z,16.02
2023-04-15T00:11:46.383Z,6.30
2023-04-15T00:14:13.479Z,4.93
2023-04-15T00:16:40.086Z,7.95
2023-04-15T00:19:06.770Z,3.88
2023-04-15T00:21:33.552Z,6.88
2023-04-15T00:24:00.281Z,7.28
2023-04-15T00:26:27.108Z,5.03
2023-04-15T00:28:53.914Z,3.45
2023-04-15T00:31:21.003Z,6.70
2023-04-15T00:33:47.944Z,7.18
2023-04-15T00:36:14.709Z,5.10
2023-04-15T00:38:41.478Z,6.72
2023-04-15T00:41:09.103Z,7.25
2023-04-15T00:43:35.775Z,4.97
2023-04-15T00:46:04.886Z,3.15
2023-04-15T00:48:32.309Z,3.95
2023-04-15T00:50:59.232Z,4.72
2023-04-15T00:53:25.883Z,4.45
2023-04-15T00:55:52.530Z,4.18
2023-04-15T00:58:19.269Z,3.72
2023-04-15T01:00:46.193Z,2.83
2023-04-15T01:03:12.939Z,2.60
2023-04-15T01:05:39.732Z,4.13
2023-04-15T01:08:06.425Z,4.10
2023-04-15T01:10:33.356Z,4.40
2023-04-15T01:13:00.200Z,6.13
2023-04-15T01:15:27.619Z,7.30
2023-04-15T01:17:54.340Z,3.08
2023-04-15T01:20:22.262Z,6.38
2023-04-15T01:22:49.468Z,9.48
2023-04-15T01:25:20.388Z,7.00
2023-04-15T01:27:47.666Z,3.58
2023-04-15T01:30:14.315Z,3.95
2023-04-15T01:32:41.027Z,4.28
2023-04-15T01:35:08.934Z,3.42
2023-04-15T01:37:35.954Z,4.95
2023-04-15T01:40:03.446Z,6.47
2023-04-15T01:42:30.071Z,5.85
2023-04-15T01:44:57.118Z,5.30
2023-04-15T01:47:23.747Z,5.32
2023-04-15T01:49:50.524Z,6.25
2023-04-15T01:52:17.226Z,6.35
2023-04-15T01:54:43.936Z,5.82
2023-04-15T01:57:10.565Z,4.22
2023-04-15T01:59:37.352Z,7.78
2023-04-15T02:02:04.576Z,4.72
2023-04-15T02:04:31.786Z,8.27
2023-04-15T02:06:58.474Z,4.32
2023-04-15T02:09:25.100Z,5.15
2023-04-15T02:11:53.710Z,4.55
2023-04-15T02:14:20.411Z,2.42
2023-04-15T02:16:47.010Z,2.50
2023-04-15T02:19:14.076Z,3.80
2023-04-15T02:21:40.741Z,4.18
2023-04-15T02:24:07.534Z,2.85
2023-04-15T02:26:34.171Z,2.10
2023-04-15T02:29:01.148Z,2.80
2023-04-15T02:31:28.152Z,5.90
2023-04-15T02:33:55.038Z,5.57
2023-04-15T02:36:21.678Z,5.10
2023-04-15T02:38:48.322Z,5.43
2023-04-15T02:41:15.045Z,7.07
2023-04-15T02:43:41.693Z,3.38
2023-04-15T02:46:08.564Z,2.60
2023-04-15T02:48:35.320Z,6.75
2023-04-15T02:51:20.934Z,3.75
2023-04-15T02:53:48.583Z,9.20
2023-04-15T02:56:15.978Z,3.50
2023-04-15T02:58:43.634Z,4.85
2023-04-15T03:01:10.460Z,6.07
2023-04-15T03:03:37.272Z,9.75
2023-04-15T03:06:04.004Z,2.60
2023-04-15T03:08:30.681Z,2.83
2023-04-15T03:11:00.732Z,2.70
2023-04-15T03:13:27.396Z,3.53
2023-04-15T03:15:54.374Z,9.77
2023-04-15T03:18:21.598Z,5.68
2023-04-15T03:20:48.270Z,6.30
2023-04-15T03:23:14.960Z,6.22
2023-04-15T03:25:41.731Z,4.10
2023-04-15T03:28:08.476Z,4.15
2023-04-15T03:30:35.080Z,3.38
2023-04-15T03:33:01.847Z,2.45
2023-04-15T03:35:28.587Z,4.07
2023-04-15T03:37:55.611Z,2.97
2023-04-15T03:40:22.648Z,3.97
2023-04-15T03:42:49.390Z,2.63
2023-04-15T03:45:16.143Z,4.18
2023-04-15T03:47:43.073Z,6.97
2023-04-15T03:50:10.158Z,8.00
2023-04-15T03:52:36.761Z,8.02
2023-04-15T03:55:03.488Z,7.40
2023-04-15T03:57:30.268Z,10.77
2023-04-15T03:59:56.976Z,5.55
2023-04-15T04:02:23.866Z,7.72
2023-04-15T04:04:50.896Z,12.25
2023-04-15T04:07:18.208Z,5.65
2023-04-15T04:09:46.198Z,5.07
2023-04-15T04:12:13.955Z,5.90
2023-04-15T04:14:40.799Z,4.60
2023-04-15T04:17:07.519Z,7.15
2023-04-15T04:19:34.328Z,3.67
2023-04-15T04:22:01.108Z,3.13
2023-04-15T04:24:27.768Z,4.35
2023-04-15T04:26:54.529Z,3.17
2023-04-15T04:29:21.446Z,3.10
2023-04-15T04:31:48.781Z,16.20
2023-04-15T04:34:16.230Z,5.45
2023-04-15T04:36:42.838Z,9.15
2023-04-15T04:39:09.500Z,10.48
2023-04-15T04:41:36.314Z,9.73
2023-04-15T04:44:03.698Z,22.67
2023-04-15T04:46:30.321Z,11.27
2023-04-15T04:48:56.947Z,17.85
2023-04-15T04:51:23.675Z,19.13
2023-04-15T04:53:50.500Z,14.82
2023-04-15T04:56:17.247Z,9.18
2023-04-15T04:58:43.882Z,9.23
2023-04-15T05:01:10.654Z,14.77
2023-04-15T05:03:38.219Z,15.63
2023-04-15T05:06:07.389Z,17.95
2023-04-15T05:08:33.991Z,15.85
2023-04-15T05:11:00.668Z,25.95
2023-04-15T05:13:27.390Z,7.78
2023-04-15T05:15:54.135Z,11.30
2023-04-15T05:18:21.036Z,19.50
2023-04-15T05:20:47.826Z,8.75
2023-04-15T05:23:14.519Z,8.68
2023-04-15T05:25:41.437Z,21.40
2023-04-15T05:28:08.091Z,19.75
2023-04-15T05:30:34.682Z,10.27
2023-04-15T05:33:01.967Z,8.73
2023-04-15T05:35:28.759Z,10.68
2023-04-15T05:37:55.947Z,5.32
2023-04-15T05:40:22.987Z,5.18
2023-04-15T05:42:49.645Z,5.80
2023-04-15T05:45:16.416Z,5.30
2023-04-15T05:47:43.258Z,4.90
2023-04-15T05:50:10.428Z,3.58
2023-04-15T05:52:37.123Z,3.35
2023-04-15T05:55:04.029Z,7.55
2023-04-15T05:57:30.956Z,2.22
2023-04-15T05:59:57.984Z,6.35
2023-04-15T06:02:24.749Z,3.40
2023-04-15T06:04:51.555Z,2.65
2023-04-15T06:07:18.230Z,8.48
2023-04-15T06:09:44.967Z,9.63
2023-04-15T06:12:13.117Z,12.65
2023-04-15T06:14:40.618Z,6.45
2023-04-15T06:17:07.667Z,5.60
2023-04-15T06:19:36.222Z,6.38
2023-04-15T06:22:03.216Z,8.80
2023-04-15T06:24:29.787Z,9.98
2023-04-15T06:26:57.666Z,4.63
2023-04-15T06:29:24.355Z,10.65
2023-04-15T06:31:51.361Z,7.55
2023-04-15T06:34:18.036Z,7.40
2023-04-15T06:36:44.618Z,7.00
2023-04-15T06:39:11.311Z,8.82
2023-04-15T06:41:37.979Z,3.67
2023-04-15T06:44:04.912Z,7.30
2023-04-15T06:46:31.606Z,6.85
2023-04-15T06:48:58.216Z,3.42
2023-04-15T06:51:26.615Z,6.53
2023-04-15T06:53:54.104Z,4.38
2023-04-15T06:56:20.799Z,7.90
2023-04-15T06:58:47.448Z,4.75
2023-04-15T07:01:14.391Z,7.03
2023-04-15T07:03:42.012Z,5.88
2023-04-15T07:06:09.492Z,7.55
2023-04-15T07:08:36.286Z,9.23
2023-04-15T07:11:02.886Z,10.65
2023-04-15T07:13:31.516Z,9.52
2023-04-15T07:15:58.577Z,4.93
2023-04-15T07:18:25.603Z,1.52
2023-04-15T07:20:52.709Z,6.45
2023-04-15T07:23:19.396Z,1.15
2023-04-15T07:25:46.115Z,4.20
2023-04-15T07:28:12.810Z,4.25
2023-04-15T07:30:39.585Z,1.98
2023-04-15T07:33:06.331Z,6.18
2023-04-15T07:35:33.368Z,10.05
2023-04-15T07:38:00.086Z,3.65
2023-04-15T07:40:26.743Z,3.05
2023-04-15T07:42:53.418Z,4.15
2023-04-15T07:45:20.165Z,7.40
2023-04-15T07:47:47.003Z,5.63
2023-04-15T07:50:13.689Z,9.35
2023-04-15T07:52:40.444Z,3.47
2023-04-15T07:55:08.511Z,3.08
2023-04-15T07:57:37.820Z,3.00
2023-04-15T08:00:05.856Z,3.47
2023-04-15T08:02:32.776Z,8.27
2023-04-15T08:04:59.903Z,2.55
2023-04-15T08:07:27.427Z,5.88
2023-04-15T08:09:54.167Z,5.32
2023-04-15T08:12:20.820Z,5.28
2023-04-15T08:14:47.530Z,2.53
2023-04-15T08:17:14.161Z,2.85
2023-04-15T08:19:40.963Z,3.63
2023-04-15T08:22:15.362Z,9.30
2023-04-15T08:24:44.667Z,13.23
2023-04-15T08:27:11.433Z,5.82
2023-04-15T08:29:38.579Z,4.40
2023-04-15T08:32:06.036Z,5.78
2023-04-15T08:34:32.734Z,2.30
2023-04-15T08:36:59.407Z,5.15
2023-04-15T08:39:26.362Z,2.75
2023-04-15T08:42:00.477Z,1.58
2023-04-15T08:44:29.572Z,2.50
2023-04-15T08:46:57.200Z,2.55
2023-04-15T08:49:24.029Z,2.97
2023-04-15T08:51:50.711Z,3.72
2023-04-15T08:54:17.348Z,6.68
2023-04-15T08:56:43.892Z,0.88
2023-04-15T08:59:11.361Z,3.22
2023-04-15T09:01:38.389Z,4.05
2023-04-15T09:04:07.984Z,4.22
2023-04-15T09:06:34.880Z,3.00
2023-04-15T09:09:01.708Z,4.07
2023-04-15T09:11:30.836Z,3.40
2023-04-15T09:13:57.670Z,3.45
2023-04-15T09:16:24.641Z,4.63
2023-04-15T09:18:51.441Z,2.80
2023-04-15T09:21:18.354Z,1.77
2023-04-15T09:23:57.167Z,1.65
2023-04-15T09:26:36.495Z,4.28
2023-04-15T09:29:09.370Z,1.00
2023-04-15T09:31:39.245Z,3.30
2023-04-15T09:34:06.260Z,3.55
2023-04-15T09:36:48.083Z,1.17
2023-04-15T09:39:16.108Z,1.27
2023-04-15T09:41:43.817Z,2.47
2023-04-15T09:44:26.391Z,2.05
2023-04-15T09:46:53.087Z,2.70
2023-04-15T09:49:20.895Z,3.55
2023-04-15T09:52:01.323Z,1.83
2023-04-15T09:54:35.138Z,5.72
2023-04-15T09:57:10.844Z,2.55
2023-04-15T09:59:37.559Z,3.55
2023-04-15T10:02:05.344Z,2.97
2023-04-15T10:04:33.137Z,2.78
2023-04-15T10:06:59.864Z,3.35
2023-04-15T10:09:26.851Z,1.27
2023-04-15T10:11:53.505Z,1.83
2023-04-15T10:14:20.200Z,1.58
2023-04-15T10:16:48.957Z,1.20
2023-04-15T10:19:16.503Z,1.63
2023-04-15T10:21:45.138Z,1.85
2023-04-15T10:24:12.071Z,3.92
2023-04-15T10:26:38.739Z,1.63
2023-04-15T10:29:05.401Z,2.53
2023-04-15T10:31:32.048Z,3.30
2023-04-15T10:33:59.152Z,2.83
2023-04-15T10:36:26.061Z,2.58
2023-04-15T10:38:52.716Z,1.50
2023-04-15T10:41:26.865Z,1.67
2023-04-15T10:43:55.000Z,0.82
2023-04-15T10:46:22.348Z,0.90
2023-04-15T10:48:52.756Z,0.63
2023-04-15T10:51:30.292Z,1.08
2023-04-15T10:53:58.849Z,1.45
2023-04-15T10:56:25.759Z,0.90
2023-04-15T10:58:52.629Z,3.15
2023-04-15T11:01:23.382Z,6.43
2023-04-15T11:03:51.822Z,1.35
2023-04-15T11:06:18.621Z,1.48
2023-04-15T11:09:05.933Z,0.73
2023-04-15T11:12:05.066Z,3.63
2023-04-15T11:14:34.018Z,0.88
2023-04-15T11:17:00.672Z,2.75
2023-04-15T11:19:27.485Z,1.80
2023-04-15T11:21:54.201Z,2.00
2023-04-15T11:24:27.255Z,1.52
2023-04-15T11:26:59.907Z,2.25
2023-04-15T11:29:32.903Z,3.95
2023-04-15T11:32:07.693Z,4.70
2023-04-15T11:34:36.240Z,2.10
2023-04-15T11:37:06.534Z,0.80
2023-04-15T11:39:33.332Z,4.35
2023-04-15T11:41:59.926Z,2.50
2023-04-15T11:44:26.536Z,3.55
2023-04-15T11:46:54.758Z,9.07
2023-04-15T11:49:31.534Z,1.02
2023-04-15T11:51:58.366Z,1.95
2023-04-15T11:54:24.998Z,1.42
2023-04-15T11:56:52.464Z,0.95
2023-04-15T11:59:19.144Z,1.67
2023-04-15T12:01:47.732Z,0.88
2023-04-15T12:04:16.456Z,2.83
2023-04-15T12:06:43.411Z,0.50
2023-04-15T12:09:13.853Z,2.15
2023-04-15T12:11:47.520Z,1.30
2023-04-15T12:14:26.062Z,0.85
2023-04-15T12:16:54.209Z,0.55
2023-04-15T12:19:28.780Z,0.20
2023-04-15T12:22:03.467Z,2.42
2023-04-15T12:24:33.497Z,2.95
2023-04-15T12:27:18.299Z,1.70
2023-04-15T12:29:45.009Z,0.80
2023-04-15T12:32:11.882Z,0.50
2023-04-15T12:34:45.660Z,0.95
2023-04-15T12:37:13.247Z,2.03
2023-04-15T12:39:41.478Z,0.63
2023-04-15T12:42:08.364Z,1.52
2023-04-15T12:44:35.801Z,1.55
2023-04-15T12:47:03.231Z,6.30
2023-04-15T12:49:30.608Z,1.88
2023-04-15T12:51:57.916Z,2.08
2023-04-15T12:54:24.585Z,1.33
2023-04-15T12:56:51.315Z,0.50
2023-04-15T12:59:18.695Z,2.55
2023-04-15T13:01:46.654Z,0.98
2023-04-15T13:04:13.696Z,1.17
2023-04-15T13:06:40.508Z,5.72
2023-04-15T13:09:07.317Z,2.63
2023-04-15T13:11:34.212Z,1.67
2023-04-15T13:14:01.922Z,1.15
2023-04-15T13:16:28.761Z,2.25
2023-04-15T13:18:55.545Z,0.77
2023-04-15T13:21:22.253Z,2.42
2023-04-15T13:23:49.836Z,0.40
2023-04-15T13:26:17.926Z,2.58
2023-04-15T13:28:44.564Z,1.73
2023-04-15T13:31:11.354Z,1.30
2023-04-15T13:33:38.119Z,0.85
2023-04-15T13:36:04.805Z,1.38
2023-04-15T13:38:31.364Z,2.70
2023-04-15T13:40:58.251Z,0.95
2023-04-15T13:43:24.929Z,1.48
2023-04-15T13:45:51.908Z,3.63
2023-04-15T13:48:18.561Z,3.28
2023-04-15T13:50:45.807Z,3.15
2023-04-15T13:53:13.156Z,4.55
2023-04-15T13:55:42.562Z,2.70
2023-04-15T13:58:09.889Z,0.88
2023-04-15T14:00:36.551Z,2.08
2023-04-15T14:03:03.488Z,1.00
2023-04-15T14:05:30.363Z,4.22
2023-04-15T14:07:56.995Z,3.00
2023-04-15T14:10:23.648Z,2.67
2023-04-15T14:12:50.258Z,1.33
2023-04-15T14:15:16.997Z,1.38
2023-04-15T14:17:43.692Z,2.42
2023-04-15T14:20:10.661Z,1.60
2023-04-15T14:22:37.249Z,3.33
2023-04-15T14:25:04.891Z,4.75
2023-04-15T14:27:31.553Z,3.88
2023-04-15T14:29:58.974Z,9.48
2023-04-15T14:32:26.402Z,7.45
2023-04-15T14:34:53.074Z,2.25
2023-04-15T14:37:19.857Z,14.60
2023-04-15T14:39:46.581Z,14.30
2023-04-15T14:42:13.169Z,2.50
2023-04-15T14:44:39.750Z,3.35
2023-04-15T14:47:06.397Z,7.10
2023-04-15T14:49:32.993Z,39.20
2023-04-15T14:51:59.694Z,4.57
2023-04-15T14:54:26.332Z,11.60
2023-04-15T14:56:53.046Z,16.52
2023-04-15T14:59:19.654Z,17.45
2023-04-15T15:01:46.718Z,20.30
2023-04-15T15:04:13.680Z,13.15
2023-04-15T15:06:41.928Z,2.45
2023-04-15T15:09:08.576Z,3.35
2023-04-15T15:11:35.277Z,12.25
2023-04-15T15:14:01.982Z,15.07
2023-04-15T15:16:29.412Z,6.40
2023-04-15T15:18:56.262Z,8.98
2023-04-15T15:21:22.984Z,5.55
2023-04-15T15:23:50.944Z,5.75
2023-04-15T15:26:19.340Z,4.13
2023-04-15T15:28:46.147Z,7.55
2023-04-15T15:31:12.856Z,8.23
2023-04-15T15:33:39.790Z,4.47
2023-04-15T15:36:06.721Z,5.85
2023-04-15T15:38:33.402Z,8.68
2023-04-15T15:41:00.179Z,5.45
2023-04-15T15:43:26.794Z,8.27
2023-04-15T15:45:55.551Z,5.50
2023-04-15T15:48:23.609Z,5.90
2023-04-15T15:50:50.276Z,4.93
2023-04-15T15:53:20.878Z,10.70
2023-04-15T15:55:48.344Z,6.53
2023-04-15T15:58:15.333Z,4.40
2023-04-15T16:00:42.612Z,2.58
2023-04-15T16:03:09.416Z,3.28
2023-04-15T16:05:36.541Z,8.10
2023-04-15T16:08:03.486Z,5.40
2023-04-15T16:10:30.514Z,7.47
2023-04-15T16:12:57.293Z,7.93
2023-04-15T16:15:25.388Z,12.02
2023-04-15T16:17:52.251Z,14.93
2023-04-15T16:20:19.197Z,17.60
2023-04-15T16:22:46.472Z,18.55
2023-04-15T16:25:13.278Z,7.07
2023-04-15T16:27:57.126Z,15.95
2023-04-15T16:30:26.038Z,12.05
2023-04-15T16:32:52.945Z,7.78
2023-04-15T16:35:20.062Z,5.47
2023-04-15T16:38:07.146Z,8.40
2023-04-15T16:40:33.833Z,23.20
2023-04-15T16:43:00.668Z,10.23
2023-04-15T16:45:27.391Z,17.75
2023-04-15T16:47:54.304Z,15.70
2023-04-15T16:50:21.058Z,15.48
2023-04-15T16:52:47.737Z,14.45
2023-04-15T16:55:14.433Z,17.67
2023-04-15T16:58:02.280Z,23.10
2023-04-15T17:03:26.002Z,31.75
2023-04-15T17:05:52.666Z,29.25
2023-04-15T17:08:19.409Z,25.85
2023-04-15T17:10:46.060Z,49.47
2023-04-15T17:13:12.734Z,36.88
2023-04-15T17:15:41.091Z,36.50
2023-04-15T17:18:08.676Z,65.07
2023-04-15T17:20:35.292Z,65.43
2023-04-15T17:23:01.943Z,67.05
2023-04-15T17:25:28.739Z,18.92
2023-04-15T17:27:55.444Z,22.63
2023-04-15T17:30:22.980Z,12.05
2023-04-15T17:32:49.748Z,22.00
2023-04-15T17:35:16.517Z,24.73
2023-04-15T17:37:43.140Z,20.50
2023-04-15T17:40:10.342Z,22.67
2023-04-15T17:42:36.910Z,23.40
2023-04-15T17:45:03.738Z,33.30
2023-04-15T17:47:30.450Z,51.17
2023-04-15T17:49:57.058Z,60.88
2023-04-15T17:52:23.679Z,152.50
2023-04-15T17:54:50.373Z,16.60
2023-04-15T17:57:17.089Z,8.18
2023-04-15T17:59:45.095Z,4.32
2023-04-15T18:02:11.970Z,3.80
2023-04-15T18:04:39.187Z,2.33
2023-04-15T18:07:05.955Z,2.35
2023-04-15T18:09:32.688Z,2.63
2023-04-15T18:11:59.483Z,9.13
2023-04-15T18:14:34.139Z,15.18
2023-04-15T18:17:02.580Z,10.80
2023-04-15T18:19:30.242Z,21.10
2023-04-15T18:21:56.940Z,32.63
2023-04-15T18:24:23.695Z,29.70
2023-04-15T18:26:50.406Z,19.98
2023-04-15T18:29:18.585Z,23.50
2023-04-15T18:31:45.306Z,20.90
2023-04-15T18:34:12.531Z,15.65
2023-04-15T18:36:39.129Z,17.48
2023-04-15T18:39:06.010Z,9.82
2023-04-15T18:41:32.987Z,20.40
2023-04-15T18:43:59.611Z,23.85
2023-04-15T18:46:26.383Z,32.28
2023-04-15T18:48:53.040Z,50.00
2023-04-15T18:51:19.733Z,79.43
2023-04-15T18:53:46.398Z,97.43
2023-04-15T18:56:13.157Z,33.83
2023-04-15T18:59:25.980Z,19.30
2023-04-15T19:01:26.607Z,11.80
2023-04-15T19:03:53.449Z,12.68
2023-04-15T19:06:20.274Z,14.55
2023-04-15T19:08:46.938Z,14.50
2023-04-15T19:11:13.618Z,18.58
2023-04-15T19:13:40.626Z,21.00
2023-04-15T19:16:07.377Z,22.02
2023-04-15T19:18:34.133Z,79.85
2023-04-15T19:21:00.980Z,83.60
2023-04-15T19:23:27.623Z,74.30
2023-04-15T19:25:54.226Z,43.78
2023-04-15T19:28:20.880Z,31.27
2023-04-15T19:30:47.557Z,37.80
2023-04-15T19:33:14.235Z,34.03
2023-04-15T19:35:41.039Z,18.63
2023-04-15T19:38:07.794Z,25.77
2023-04-15T19:40:34.367Z,15.65
2023-04-15T19:43:01.099Z,14.32
2023-04-15T19:45:27.760Z,15.95
2023-04-15T19:47:54.516Z,10.57
2023-04-15T19:50:25.908Z,23.50
2023-04-15T19:52:53.024Z,38.17
2023-04-15T19:55:19.937Z,49.38
2023-04-15T19:57:46.974Z,37.60
2023-04-15T20:00:13.801Z,16.27
2023-04-15T20:02:40.551Z,16.98
2023-04-15T20:05:09.949Z,18.95
2023-04-15T20:07:36.742Z,19.88
2023-04-15T20:10:03.610Z,14.98
2023-04-15T20:12:49.277Z,58.10
2023-04-15T20:15:19.378Z,92.45
2023-04-15T20:17:46.175Z,21.85
2023-04-15T20:20:12.998Z,16.38
2023-04-15T20:22:39.647Z,22.88
2023-04-15T20:25:06.811Z,41.00
2023-04-15T20:27:33.495Z,27.08
2023-04-15T20:30:00.471Z,17.00
2023-04-15T20:32:28.402Z,20.10
2023-04-15T20:34:55.221Z,17.50
2023-04-15T20:37:22.484Z,16.13
2023-04-15T20:39:49.247Z,12.23
2023-04-15T20:42:16.205Z,14.13
2023-04-15T20:44:42.867Z,14.70
2023-04-15T20:47:09.649Z,18.20
2023-04-15T20:49:37.401Z,14.25
2023-04-15T20:52:04.687Z,11.70
2023-04-15T20:54:31.516Z,23.85
2023-04-15T20:56:58.222Z,20.92
2023-04-15T20:59:25.313Z,11.68
2023-04-15T21:01:52.132Z,14.20
2023-04-15T21:04:19.201Z,9.95
2023-04-15T21:06:45.861Z,11.25
2023-04-15T21:09:12.620Z,11.80
2023-04-15T21:11:57.512Z,11.02
2023-04-15T21:14:26.001Z,17.02
2023-04-15T21:16:52.654Z,15.82
2023-04-15T21:19:19.405Z,6.55
2023-04-15T21:21:46.189Z,8.05
2023-04-15T21:24:12.812Z,7.00
2023-04-15T21:26:39.464Z,14.73
2023-04-15T21:29:08.617Z,17.13
2023-04-15T21:31:37.284Z,14.57
2023-04-15T21:34:04.162Z,14.00
2023-04-15T21:36:31.720Z,14.85
2023-04-15T21:38:58.453Z,14.50
2023-04-15T21:41:25.442Z,15.40
2023-04-15T21:43:53.067Z,14.30
2023-04-15T21:46:23.203Z,12.23
2023-04-15T21:48:53.217Z,17.05
2023-04-15T21:51:19.989Z,9.45
2023-04-15T21:53:46.606Z,6.90
2023-04-15T21:56:13.245Z,9.55
2023-04-15T21:58:39.860Z,9.13
2023-04-15T22:01:06.627Z,6.65
2023-04-15T22:03:34.400Z,7.50
2023-04-15T22:06:04.340Z,10.48
2023-04-15T22:08:41.732Z,10.15
2023-04-15T22:11:21.032Z,9.65
2023-04-15T22:13:47.689Z,7.90
2023-04-15T22:16:14.424Z,6.78
2023-04-15T22:18:41.066Z,8.68
2023-04-15T22:21:08.012Z,7.78
2023-04-15T22:23:34.748Z,4.35
2023-04-15T22:26:01.604Z,11.02
2023-04-15T22:28:28.310Z,6.57
2023-04-15T22:30:54.982Z,6.82
2023-04-15T22:33:21.711Z,6.68
2023-04-15T22:35:48.431Z,6.78
2023-04-15T22:38:15.049Z,5.95
2023-04-15T22:40:42.172Z,7.80
2023-04-15T22:43:08.877Z,13.38
2023-04-15T22:45:35.736Z,16.42
2023-04-15T22:48:02.648Z,7.93
2023-04-15T22:50:29.379Z,6.47
2023-04-15T22:52:55.984Z,8.35
2023-04-15T22:55:22.719Z,9.35
2023-04-15T22:57:49.330Z,7.07
2023-04-15T23:00:16.014Z,6.57
2023-04-15T23:02:42.721Z,8.43
2023-04-15T23:05:13.394Z,10.43
2023-04-15T23:07:40.391Z,5.70
2023-04-15T23:10:08.113Z,14.18
2023-04-15T23:12:34.956Z,11.18
2023-04-15T23:15:01.731Z,9.75
2023-04-15T23:17:28.437Z,10.75
2023-04-15T23:19:55.080Z,5.65
2023-04-15T23:22:21.817Z,7.43
2023-04-15T23:24:48.381Z,4.47
2023-04-15T23:27:15.287Z,7.30
2023-04-15T23:29:42.113Z,5.03
2023-04-15T23:32:08.808Z,6.45
2023-04-15T23:34:35.428Z,6.20
2023-04-15T23:37:02.098Z,4.72
2023-04-15T23:39:30.203Z,7.47
2023-04-15T23:41:57.537Z,6.05
2023-04-15T23:44:24.289Z,9.93
2023-04-15T23:46:51.445Z,6.35
2023-04-15T23:49:20.205Z,13.95
2023-04-15T23:51:47.235Z,8.68
2023-04-15T23:54:14.511Z,5.80
2023-04-15T23:56:41.237Z,7.05
2023-04-15T23:59:08.243Z,6.85
